Time;durP1;ratioP1;P1;durP2;ratioP2;P2;SDS_P1;SDS_P2;PMS_P1;PMS_P2;Temp;Humidity;BMP_temperature;BMP_pressure;BME280_temperature;BME280_humidity;BME280_pressure;Samples;Min_cycle;Max_cycle;Signal;HPM_P1;HPM_P2
2023/05/23 00:01:41;;;;;;;5.95;3.15;;;15.70;99.90;;;;;;5053343;28;20128;-48
2023/05/23 00:04:08;;;;;;;7.28;3.78;;;15.60;99.90;;;;;;5053443;28;20021;-53
2023/05/23 00:06:35;;;;;;;6.40;2.95;;;15.60;99.90;;;;;;5053453;28;20469;-48
2023/05/23 00:09:01;;;;;;;6.10;2.70;;;15.60;99.90;;;;;;5053523;28;20028;-49
2023/05/23 00:11:27;;;;;;;6.43;3.17;;;15.50;99.90;;;;;;5053100;28;20061;-48
2023/05/23 00:13:54;;;;;;;5.03;2.85;;;15.50;99.90;;;;;;5053251;28;20029;-49
2023/05/23 00:16:20;;;;;;;5.57;3.05;;;15.50;99.90;;;;;;5053392;28;20492;-48
2023/05/23 00:18:46;;;;;;;7.50;2.53;;;15.50;99.90;;;;;;5053334;28;20127;-48
2023/05/23 00:21:15;;;;;;;5.97;2.65;;;15.50;99.90;;;;;;5053314;28;20481;-48
2023/05/23 00:23:41;;;;;;;4.05;2.40;;;15.40;99.90;;;;;;5053052;28;20079;-48
2023/05/23 00:26:09;;;;;;;4.93;2.67;;;15.40;99.90;;;;;;5053218;28;20032;-48
2023/05/23 00:28:38;;;;;;;6.13;2.67;;;15.40;99.90;;;;;;5053286;28;20059;-51
2023/05/23 00:31:04;;;;;;;5.72;2.33;;;15.40;99.90;;;;;;5052973;28;20492;-49
2023/05/23 00:33:32;;;;;;;3.55;2.35;;;15.30;99.90;;;;;;5051577;28;20033;-49
2023/05/23 00:36:01;;;;;;;4.32;2.45;;;15.40;99.90;;;;;;5053090;28;20021;-48
2023/05/23 00:38:27;;;;;;;4.38;2.60;;;15.30;99.90;;;;;;5051483;28;20035;-48
2023/05/23 00:40:53;;;;;;;5.82;2.70;;;15.30;99.90;;;;;;5051320;28;20528;-49
2023/05/23 00:43:21;;;;;;;4.65;2.50;;;15.30;99.90;;;;;;5052741;28;20033;-48
2023/05/23 00:45:47;;;;;;;5.18;2.63;;;15.30;99.90;;;;;;5051622;28;20469;-49
2023/05/23 00:48:14;;;;;;;5.55;2.47;;;15.30;99.90;;;;;;5052829;28;20029;-50
2023/05/23 00:50:41;;;;;;;6.00;2.60;;;15.30;99.90;;;;;;5051189;28;20037;-53
2023/05/23 00:53:07;;;;;;;4.13;2.47;;;15.30;99.90;;;;;;5051172;28;20040;-49
2023/05/23 00:55:33;;;;;;;6.00;2.88;;;15.30;99.90;;;;;;5051679;28;20040;-49
2023/05/23 00:57:58;;;;;;;6.07;3.25;;;15.30;99.90;;;;;;5052653;28;20037;-51
2023/05/23 01:00:25;;;;;;;5.90;2.88;;;15.30;99.90;;;;;;5050971;28;20024;-48
2023/05/23 01:02:52;;;;;;;5.35;2.88;;;15.30;99.90;;;;;;5052443;28;20028;-48
2023/05/23 01:05:21;;;;;;;6.13;2.92;;;15.20;99.90;;;;;;5052014;28;20604;-48
2023/05/23 01:07:50;;;;;;;5.78;3.33;;;15.30;99.90;;;;;;5052770;28;20036;-51
2023/05/23 01:10:22;;;;;;;5.65;2.95;;;15.30;99.90;;;;;;5050859;28;20053;-48
2023/05/23 01:13:09;;;;;;;8.43;3.60;;;15.30;99.90;;;;;;5052373;28;20151;-49
2023/05/23 01:15:44;;;;;;;4.80;3.00;;;15.30;99.90;;;;;;5052372;28;20432;-48
2023/05/23 01:18:20;;;;;;;3.55;2.15;;;15.20;99.90;;;;;;5052390;28;20032;-46
2023/05/23 01:20:53;;;;;;;6.75;3.08;;;15.30;99.90;;;;;;5052011;28;20025;-48
2023/05/23 01:23:40;;;;;;;6.43;2.72;;;15.20;99.90;;;;;;5052032;28;20116;-47
2023/05/23 01:26:17;;;;;;;5.13;2.53;;;15.30;99.90;;;;;;5052043;28;20024;-46
2023/05/23 01:28:47;;;;;;;5.03;2.80;;;15.20;99.90;;;;;;5050886;28;20032;-48
2023/05/23 01:31:16;;;;;;;6.93;2.97;;;15.30;99.90;;;;;;5052067;28;20033;-47
2023/05/23 01:33:42;;;;;;;5.72;2.78;;;15.20;99.90;;;;;;5052374;28;20029;-49
2023/05/23 01:36:11;;;;;;;4.45;2.58;;;15.20;99.90;;;;;;5052285;28;20021;-47
2023/05/23 01:38:37;;;;;;;4.80;2.63;;;15.30;99.90;;;;;;5051912;28;20041;-49
2023/05/23 01:41:02;;;;;;;6.25;2.50;;;15.30;99.90;;;;;;5051693;28;20032;-50
2023/05/23 01:43:30;;;;;;;4.82;2.33;;;15.30;99.90;;;;;;5050530;28;20040;-48
2023/05/23 01:45:58;;;;;;;5.30;3.10;;;15.30;99.90;;;;;;5052025;28;20025;-49
2023/05/23 01:48:26;;;;;;;5.25;2.90;;;15.30;99.90;;;;;;5051860;28;20024;-50
2023/05/23 01:50:53;;;;;;;6.22;2.90;;;15.30;99.90;;;;;;5050513;28;20060;-48
2023/05/23 01:53:21;;;;;;;5.80;2.97;;;15.30;99.90;;;;;;5049975;28;20029;-48
2023/05/23 01:55:48;;;;;;;6.20;2.72;;;15.30;99.90;;;;;;5050302;28;20471;-48
2023/05/23 01:58:14;;;;;;;5.28;3.13;;;15.20;99.90;;;;;;5050200;28;20033;-48
2023/05/23 02:00:40;;;;;;;5.82;3.30;;;15.20;99.90;;;;;;5049858;28;20109;-50
2023/05/23 02:03:06;;;;;;;5.82;3.05;;;15.20;99.90;;;;;;5050044;28;20036;-50
2023/05/23 02:05:32;;;;;;;5.32;3.03;;;15.20;99.90;;;;;;5049984;28;20025;-49
2023/05/23 02:08:00;;;;;;;6.70;3.03;;;15.20;99.90;;;;;;5033696;28;20075;-47
2023/05/23 02:10:26;;;;;;;5.78;2.70;;;15.20;99.90;;;;;;5049644;28;20045;-48
2023/05/23 02:12:51;;;;;;;6.03;3.05;;;15.20;99.90;;;;;;5051024;28;20033;-48
2023/05/23 02:15:17;;;;;;;6.40;3.30;;;15.20;99.90;;;;;;5051170;28;20033;-49
2023/05/23 02:17:43;;;;;;;6.60;2.97;;;15.20;99.90;;;;;;5049135;28;20029;-48
2023/05/23 02:20:09;;;;;;;5.32;2.97;;;15.20;99.90;;;;;;5049680;28;20055;-47
2023/05/23 02:22:35;;;;;;;5.82;2.80;;;15.20;99.90;;;;;;5049511;28;20116;-48
2023/05/23 02:25:01;;;;;;;5.63;2.83;;;15.20;99.90;;;;;;5049502;28;20135;-48
2023/05/23 02:27:27;;;;;;;5.22;2.83;;;15.20;99.90;;;;;;5049729;28;20036;-48
2023/05/23 02:29:53;;;;;;;6.10;3.55;;;15.20;99.90;;;;;;5049617;28;20037;-50
2023/05/23 02:32:19;;;;;;;6.03;3.17;;;15.20;99.90;;;;;;5050720;28;20523;-48
2023/05/23 02:34:49;;;;;;;4.95;3.00;;;15.20;99.90;;;;;;5050642;28;20028;-51
2023/05/23 02:37:15;;;;;;;6.80;2.70;;;15.20;99.90;;;;;;5049412;28;20048;-49
2023/05/23 02:39:42;;;;;;;6.57;3.90;;;15.20;99.90;;;;;;5049315;28;20033;-48
2023/05/23 02:42:08;;;;;;;9.25;3.55;;;15.20;99.90;;;;;;5049182;28;20478;-48
2023/05/23 02:44:34;;;;;;;7.25;3.05;;;15.20;99.90;;;;;;5032652;28;20025;-47
2023/05/23 02:47:00;;;;;;;7.15;3.03;;;15.20;99.90;;;;;;5049385;28;20389;-48
2023/05/23 02:49:26;;;;;;;5.72;3.47;;;15.20;99.90;;;;;;5049307;28;20033;-49
2023/05/23 02:51:52;;;;;;;7.18;3.80;;;15.20;99.90;;;;;;5049017;28;20529;-52
2023/05/23 02:54:17;;;;;;;7.47;3.90;;;15.30;99.90;;;;;;5049015;28;20486;-50
2023/05/23 02:56:44;;;;;;;8.15;3.78;;;15.20;99.90;;;;;;5049237;28;20036;-48
2023/05/23 02:59:11;;;;;;;7.85;3.85;;;15.20;99.90;;;;;;5049353;28;20482;-48
2023/05/23 03:01:37;;;;;;;6.68;3.28;;;15.20;99.90;;;;;;5050231;28;20029;-47
2023/05/23 03:04:03;;;;;;;8.00;3.85;;;15.20;99.90;;;;;;5048962;28;20024;-48
2023/05/23 03:06:31;;;;;;;6.75;3.63;;;15.20;99.90;;;;;;5049229;28;20040;-48
2023/05/23 03:08:57;;;;;;;7.38;3.15;;;15.20;99.90;;;;;;5049079;28;20021;-48
2023/05/23 03:11:22;;;;;;;9.27;4.00;;;15.10;99.90;;;;;;5048914;28;20392;-49
2023/05/23 03:13:48;;;;;;;6.07;3.70;;;15.10;99.90;;;;;;5050358;28;20517;-48
2023/05/23 03:16:14;;;;;;;5.55;3.22;;;15.10;99.90;;;;;;5050496;28;20025;-50
2023/05/23 03:18:40;;;;;;;6.07;2.95;;;15.10;99.90;;;;;;5048971;28;20449;-53
2023/05/23 03:21:07;;;;;;;7.65;3.17;;;15.10;99.90;;;;;;5048851;28;20040;-46
2023/05/23 03:23:33;;;;;;;7.20;3.28;;;15.10;99.90;;;;;;5048709;28;20033;-48
2023/05/23 03:25:58;;;;;;;7.38;3.38;;;15.10;99.90;;;;;;5050300;28;20440;-47
2023/05/23 03:28:24;;;;;;;6.75;3.28;;;15.10;99.90;;;;;;5050815;28;20029;-48
2023/05/23 03:30:50;;;;;;;7.00;3.38;;;15.10;99.90;;;;;;5052711;28;20032;-49
2023/05/23 03:33:16;;;;;;;7.35;3.00;;;15.10;99.90;;;;;;5054008;28;20029;-47
2023/05/23 03:35:43;;;;;;;5.18;2.60;;;15.10;99.90;;;;;;5053103;28;20504;-49
2023/05/23 03:38:09;;;;;;;6.55;2.83;;;15.10;99.90;;;;;;5052599;28;20033;-48
2023/05/23 03:40:35;;;;;;;6.47;3.05;;;15.00;99.90;;;;;;5052555;28;20428;-49
2023/05/23 03:43:05;;;;;;;6.57;2.90;;;15.00;99.90;;;;;;5053870;28;20043;-48
2023/05/23 03:45:33;;;;;;;7.82;2.88;;;14.90;99.90;;;;;;5052827;28;20039;-48
2023/05/23 03:48:04;;;;;;;6.32;2.97;;;14.90;99.90;;;;;;5052712;28;20025;-48
2023/05/23 03:50:30;;;;;;;9.52;3.20;;;14.90;99.90;;;;;;5052468;28;20025;-49
2023/05/23 03:52:56;;;;;;;6.90;3.53;;;14.90;99.90;;;;;;5053608;28;20035;-50
2023/05/23 03:55:24;;;;;;;9.25;3.85;;;14.90;99.90;;;;;;5052684;28;20033;-48
2023/05/23 03:57:53;;;;;;;7.45;3.00;;;14.90;99.90;;;;;;5052595;28;20029;-49
2023/05/23 04:00:19;;;;;;;6.78;3.28;;;14.90;99.90;;;;;;5052158;28;20127;-50
2023/05/23 04:02:50;;;;;;;6.00;2.80;;;14.90;99.90;;;;;;5052516;28;20400;-48
2023/05/23 04:05:18;;;;;;;6.05;2.90;;;14.80;99.90;;;;;;5052574;28;20021;-48
2023/05/23 04:07:44;;;;;;;7.13;3.45;;;14.80;99.90;;;;;;5052640;28;20025;-53
2023/05/23 04:10:11;;;;;;;5.85;3.03;;;14.80;99.90;;;;;;5052665;28;20033;-52
2023/05/23 04:12:40;;;;;;;6.25;2.70;;;14.80;99.90;;;;;;5052401;28;20555;-48
2023/05/23 04:15:11;;;;;;;6.60;3.30;;;14.70;99.90;;;;;;5052255;28;20529;-50
2023/05/23 04:17:46;;;;;;;7.20;3.30;;;14.80;99.90;;;;;;5052267;28;20028;-51
2023/05/23 04:20:12;;;;;;;6.85;3.08;;;14.70;99.90;;;;;;5053424;28;20029;-49
2023/05/23 04:22:38;;;;;;;8.82;3.67;;;14.70;99.90;;;;;;5052010;28;20025;-51
2023/05/23 04:25:05;;;;;;;6.70;3.47;;;14.80;99.90;;;;;;5051947;28;20453;-50
2023/05/23 04:27:38;;;;;;;9.18;3.58;;;14.80;99.90;;;;;;5051917;28;20036;-48
2023/05/23 04:30:08;;;;;;;8.40;3.72;;;14.80;99.90;;;;;;5051796;28;20555;-52
2023/05/23 04:32:35;;;;;;;9.18;3.92;;;14.80;99.90;;;;;;5051960;28;20043;-48
2023/05/23 04:35:03;;;;;;;6.05;3.20;;;14.80;99.90;;;;;;5051615;28;20029;-48
2023/05/23 04:37:31;;;;;;;6.88;3.83;;;14.80;99.90;;;;;;5051623;28;20378;-49
2023/05/23 04:40:01;;;;;;;7.93;3.47;;;14.80;99.90;;;;;;5050586;28;20040;-48
2023/05/23 04:42:48;;;;;;;7.82;3.92;;;14.80;99.90;;;;;;5048871;28;20069;-49
2023/05/23 04:45:31;;;;;;;5.93;3.40;;;14.80;99.90;;;;;;5051731;28;20417;-50
2023/05/23 04:48:15;;;;;;;7.78;3.83;;;14.80;99.90;;;;;;5051896;28;20021;-49
2023/05/23 04:50:46;;;;;;;9.35;3.92;;;14.80;99.90;;;;;;5051154;28;20555;-52
2023/05/23 04:53:12;;;;;;;8.55;4.28;;;14.80;99.90;;;;;;5051194;28;20560;-49
2023/05/23 04:55:38;;;;;;;8.52;4.30;;;14.80;99.90;;;;;;5051448;28;20037;-48
2023/05/23 04:58:09;;;;;;;8.60;4.38;;;14.80;99.90;;;;;;5051474;28;20480;-51
2023/05/23 05:00:35;;;;;;;9.88;4.75;;;14.80;99.90;;;;;;5051078;28;20312;-52
2023/05/23 05:03:01;;;;;;;7.47;4.05;;;14.80;99.90;;;;;;5050946;28;20070;-48
2023/05/23 05:05:28;;;;;;;12.13;4.95;;;14.90;99.90;;;;;;5051163;28;20029;-48
2023/05/23 05:07:54;;;;;;;10.88;5.00;;;14.80;99.90;;;;;;5051084;28;20025;-48
2023/05/23 05:10:20;;;;;;;8.02;4.25;;;14.80;99.90;;;;;;5052176;28;20029;-49
2023/05/23 05:12:50;;;;;;;11.15;4.82;;;14.70;99.90;;;;;;5052439;28;20280;-48
2023/05/23 05:15:17;;;;;;;9.65;4.93;;;14.70;99.90;;;;;;5050794;28;20033;-48
2023/05/23 05:17:45;;;;;;;9.20;4.60;;;14.60;99.90;;;;;;5051008;28;20033;-51
2023/05/23 05:20:14;;;;;;;8.52;4.65;;;14.60;99.90;;;;;;5050537;28;20037;-51
2023/05/23 05:22:41;;;;;;;9.57;4.60;;;14.60;99.90;;;;;;5050924;28;20029;-49
2023/05/23 05:25:09;;;;;;;10.45;4.53;;;14.60;99.90;;;;;;5051034;28;20619;-52
2023/05/23 05:27:38;;;;;;;9.43;4.82;;;14.60;99.90;;;;;;5050906;28;20039;-50
2023/05/23 05:30:09;;;;;;;10.63;4.82;;;14.60;99.90;;;;;;5051008;28;20400;-48
2023/05/23 05:32:46;;;;;;;10.93;5.00;;;14.60;99.90;;;;;;5050960;28;20563;-48
2023/05/23 05:35:12;;;;;;;9.73;4.55;;;14.70;99.90;;;;;;5050597;28;20028;-50
2023/05/23 05:37:40;;;;;;;9.20;4.25;;;14.70;99.90;;;;;;5050482;28;20037;-49
2023/05/23 05:40:07;;;;;;;8.50;3.70;;;14.80;99.90;;;;;;5050328;28;20078;-52
2023/05/23 05:42:36;;;;;;;7.80;3.90;;;14.80;99.90;;;;;;5050220;28;20070;-48
2023/05/23 05:45:01;;;;;;;7.88;4.63;;;14.80;99.90;;;;;;5050345;28;20029;-48
2023/05/23 05:47:28;;;;;;;8.68;3.80;;;14.80;99.90;;;;;;5050437;28;20115;-47
2023/05/23 05:49:54;;;;;;;10.77;4.93;;;14.80;99.90;;;;;;5050346;28;20040;-49
2023/05/23 05:52:20;;;;;;;8.25;3.92;;;14.90;99.90;;;;;;5049876;28;20025;-48
2023/05/23 05:54:46;;;;;;;9.32;4.22;;;14.90;99.90;;;;;;5049958;28;20044;-48
2023/05/23 05:57:12;;;;;;;9.50;4.00;;;14.90;99.90;;;;;;5050084;28;20493;-53
2023/05/23 05:59:37;;;;;;;7.93;3.67;;;14.80;99.90;;;;;;5050273;28;20473;-47
2023/05/23 06:02:03;;;;;;;7.45;3.80;;;14.70;99.90;;;;;;5051026;28;20135;-48
2023/05/23 06:04:30;;;;;;;7.05;3.63;;;14.70;99.90;;;;;;5049916;28;20078;-51
2023/05/23 06:06:57;;;;;;;7.65;4.22;;;14.70;99.90;;;;;;5049996;28;20063;-50
2023/05/23 06:09:22;;;;;;;8.43;4.32;;;14.70;99.90;;;;;;5049961;28;20041;-47
2023/05/23 06:11:48;;;;;;;7.95;4.25;;;14.60;99.90;;;;;;5050865;28;20496;-47
2023/05/23 06:14:14;;;;;;;8.88;4.53;;;14.60;99.90;;;;;;5049931;28;20184;-49
2023/05/23 06:16:43;;;;;;;10.43;3.80;;;14.60;99.90;;;;;;5049957;28;20064;-47
2023/05/23 06:19:09;;;;;;;8.10;3.92;;;14.60;99.90;;;;;;5051100;28;20044;-48
2023/05/23 06:21:36;;;;;;;7.50;3.72;;;14.60;99.90;;;;;;5049631;28;20131;-48
2023/05/23 06:24:04;;;;;;;8.45;4.13;;;14.70;99.90;;;;;;5049529;28;20021;-48
2023/05/23 06:26:30;;;;;;;8.35;4.20;;;14.70;99.90;;;;;;5049764;28;20108;-49
2023/05/23 06:28:56;;;;;;;8.77;4.50;;;14.70;99.90;;;;;;5049660;28;20036;-48
2023/05/23 06:31:22;;;;;;;7.97;5.00;;;14.70;99.90;;;;;;5050799;28;20033;-50
2023/05/23 06:33:47;;;;;;;7.57;4.35;;;14.80;99.90;;;;;;5049388;28;20029;-50
2023/05/23 06:36:13;;;;;;;7.35;4.32;;;14.70;99.90;;;;;;5051455;28;20342;-48
2023/05/23 06:38:39;;;;;;;11.63;4.88;;;14.80;99.90;;;;;;5050757;28;20405;-49
2023/05/23 06:41:06;;;;;;;7.25;4.25;;;14.80;99.90;;;;;;5049298;28;20094;-49
2023/05/23 06:43:33;;;;;;;10.32;4.60;;;14.80;99.90;;;;;;5049288;28;20033;-51
2023/05/23 06:46:21;;;;;;;;;;;14.80;99.90;;;;;;5045771;28;20037;-50
2023/05/23 06:48:47;;;;;;;8.02;3.50;;;14.80;99.90;;;;;;5049439;28;20434;-48
2023/05/23 06:51:13;;;;;;;7.35;3.97;;;14.80;99.90;;;;;;5049164;28;20037;-47
2023/05/23 06:53:40;;;;;;;8.15;3.65;;;14.90;99.90;;;;;;5049266;28;20081;-51
2023/05/23 06:56:06;;;;;;;9.90;3.65;;;14.90;99.90;;;;;;5049522;28;20377;-47
2023/05/23 06:58:38;;;;;;;10.68;4.95;;;14.90;99.90;;;;;;5049444;28;20505;-47
2023/05/23 07:01:05;;;;;;;8.48;4.53;;;14.80;99.90;;;;;;5049023;28;20128;-50
2023/05/23 07:03:37;;;;;;;9.10;4.35;;;14.70;99.90;;;;;;5048554;28;20095;-51
2023/05/23 07:06:05;;;;;;;9.57;3.92;;;14.70;99.90;;;;;;5049330;28;20033;-52
2023/05/23 07:08:31;;;;;;;10.50;4.50;;;14.70;99.90;;;;;;5049464;28;20528;-54
2023/05/23 07:10:58;;;;;;;9.65;4.38;;;14.70;99.90;;;;;;5049016;28;20051;-48
2023/05/23 07:13:37;;;;;;;;;;;14.80;99.90;;;;;;5049812;28;20060;-48
2023/05/23 07:16:04;;;;;;;7.97;3.72;;;14.80;99.90;;;;;;5049487;28;19944;-50
2023/05/23 07:18:31;;;;;;;7.55;3.60;;;14.90;99.90;;;;;;5049371;28;20062;-52
2023/05/23 07:20:57;;;;;;;8.23;3.55;;;14.90;99.90;;;;;;5049028;28;20033;-48
2023/05/23 07:23:24;;;;;;;9.60;3.85;;;14.90;99.90;;;;;;5049135;28;20029;-50
2023/05/23 07:25:50;;;;;;;8.77;3.42;;;14.90;99.90;;;;;;5049179;28;20056;-51
2023/05/23 07:28:25;;;;;;;10.57;3.97;;;14.80;99.90;;;;;;5050610;28;20100;-51
2023/05/23 07:30:52;;;;;;;8.70;3.92;;;14.70;99.90;;;;;;5048668;28;20032;-48
2023/05/23 07:33:18;;;;;;;9.48;3.85;;;14.70;99.90;;;;;;5049992;28;20056;-53
2023/05/23 07:35:46;;;;;;;8.85;3.45;;;14.60;99.90;;;;;;5049163;28;20041;-49
2023/05/23 07:38:11;;;;;;;11.30;4.03;;;14.60;99.90;;;;;;5049040;28;20416;-48
2023/05/23 07:40:39;;;;;;;15.32;4.90;;;14.60;99.90;;;;;;5050040;28;20481;-49
2023/05/23 07:43:05;;;;;;;10.43;3.72;;;14.50;99.90;;;;;;5048767;28;20424;-51
2023/05/23 07:45:31;;;;;;;8.07;4.20;;;14.50;99.90;;;;;;5048847;28;20021;-51
2023/05/23 07:47:58;;;;;;;10.15;4.30;;;14.60;99.90;;;;;;5048783;28;20029;-50
2023/05/23 07:50:26;;;;;;;14.00;4.60;;;14.50;99.90;;;;;;5048644;28;20504;-48
2023/05/23 07:52:52;;;;;;;12.77;4.75;;;14.50;99.90;;;;;;5048808;28;20037;-48
2023/05/23 07:55:24;;;;;;;10.07;5.88;;;14.50;99.90;;;;;;5048699;28;20033;-48
2023/05/23 07:57:55;;;;;;;10.07;4.88;;;14.30;99.90;;;;;;5048791;28;20087;-50
2023/05/23 08:00:21;;;;;;;9.95;4.30;;;14.30;99.90;;;;;;5048411;28;20068;-49
2023/05/23 08:02:53;;;;;;;11.63;4.70;;;14.20;99.90;;;;;;5048589;28;20115;-52
2023/05/23 08:05:26;;;;;;;11.50;3.97;;;14.10;99.90;;;;;;5048750;28;20025;-48
2023/05/23 08:07:54;;;;;;;9.90;4.13;;;14.00;99.90;;;;;;5048628;28;20536;-50
2023/05/23 08:10:20;;;;;;;9.55;4.55;;;14.00;99.90;;;;;;5048189;28;20129;-50
2023/05/23 08:12:46;;;;;;;8.30;4.07;;;13.90;99.90;;;;;;5048681;28;20035;-49
2023/05/23 08:15:16;;;;;;;13.73;5.03;;;13.80;99.90;;;;;;5049884;28;20033;-53
2023/05/23 08:17:47;;;;;;;11.70;5.00;;;13.70;99.90;;;;;;5052165;28;20040;-50
2023/05/23 08:20:13;;;;;;;12.82;6.00;;;13.60;99.90;;;;;;5051752;28;20033;-49
2023/05/23 08:22:39;;;;;;;15.88;7.70;;;13.60;99.90;;;;;;5051864;28;20025;-51
2023/05/23 08:25:06;;;;;;;13.13;5.65;;;13.60;99.90;;;;;;5051745;28;20021;-51
2023/05/23 08:27:36;;;;;;;15.73;6.68;;;13.50;99.90;;;;;;5052222;28;20396;-47
2023/05/23 08:30:10;;;;;;;17.70;7.20;;;13.50;99.90;;;;;;5051680;28;20021;-48
2023/05/23 08:32:37;;;;;;;13.05;6.05;;;13.50;99.90;;;;;;5051590;28;20035;-48
2023/05/23 08:35:03;;;;;;;12.25;5.50;;;13.40;99.90;;;;;;5051519;28;20032;-49
2023/05/23 08:37:29;;;;;;;12.82;5.13;;;13.40;99.90;;;;;;5051527;28;20056;-49
2023/05/23 08:39:55;;;;;;;12.57;5.65;;;13.30;99.90;;;;;;5051656;28;20033;-50
2023/05/23 08:42:35;;;;;;;16.42;5.60;;;13.30;99.90;;;;;;5051477;28;20095;-48
2023/05/23 08:45:03;;;;;;;16.40;5.55;;;13.20;99.90;;;;;;5051369;28;20032;-50
2023/05/23 08:47:33;;;;;;;13.93;6.63;;;13.20;99.90;;;;;;5051574;28;20025;-48
2023/05/23 08:50:03;;;;;;;13.43;5.82;;;13.20;99.90;;;;;;5051343;28;20029;-49
2023/05/23 08:52:30;;;;;;;16.85;4.35;;;13.20;99.90;;;;;;5051341;28;20033;-48
2023/05/23 08:54:59;;;;;;;13.35;4.70;;;13.20;99.90;;;;;;5051287;28;20556;-51
2023/05/23 08:57:27;;;;;;;15.85;5.97;;;13.20;99.90;;;;;;5051342;28;20067;-53
2023/05/23 08:59:59;;;;;;;14.68;5.78;;;13.20;99.90;;;;;;5051176;28;20053;-48
2023/05/23 09:02:24;;;;;;;11.85;5.05;;;13.10;99.90;;;;;;5052429;28;20036;-50
2023/05/23 09:04:55;;;;;;;10.40;5.22;;;13.10;99.90;;;;;;5051104;28;20078;-50
2023/05/23 09:07:24;;;;;;;11.15;5.05;;;13.10;99.90;;;;;;5051246;28;20393;-52
2023/05/23 09:09:51;;;;;;;11.63;5.05;;;13.00;99.90;;;;;;5051155;28;20086;-50
2023/05/23 09:12:17;;;;;;;13.18;5.13;;;13.00;99.90;;;;;;5050790;28;20033;-51
2023/05/23 09:14:45;;;;;;;12.38;4.68;;;13.00;99.90;;;;;;5034517;28;20028;-50
2023/05/23 09:17:17;;;;;;;10.80;5.55;;;13.00;99.90;;;;;;5050985;28;20032;-52
2023/05/23 09:19:46;;;;;;;13.00;5.47;;;13.00;99.90;;;;;;5050996;28;20037;-49
2023/05/23 09:22:25;;;;;;;11.25;4.53;;;13.10;99.90;;;;;;5050788;28;20025;-49
2023/05/23 09:24:59;;;;;;;8.27;3.75;;;13.10;99.90;;;;;;5050644;28;20781;-51
2023/05/23 09:27:26;;;;;;;10.35;4.20;;;13.20;99.90;;;;;;5050490;28;20028;-52
2023/05/23 09:29:52;;;;;;;10.80;3.42;;;13.20;99.90;;;;;;5050807;28;20034;-50
2023/05/23 09:32:20;;;;;;;8.38;3.60;;;13.10;99.90;;;;;;5050433;28;20119;-49
2023/05/23 09:35:02;;;;;;;8.18;3.88;;;13.10;99.90;;;;;;5050762;28;20385;-51
2023/05/23 09:37:38;;;;;;;9.15;3.72;;;13.00;99.90;;;;;;5051817;28;20052;-49
2023/05/23 09:40:12;;;;;;;12.13;3.83;;;13.00;99.90;;;;;;5050291;28;20062;-52
2023/05/23 09:42:45;;;;;;;11.85;4.47;;;13.00;99.90;;;;;;5050599;28;20025;-54
2023/05/23 09:45:13;;;;;;;10.32;3.90;;;13.00;99.90;;;;;;5051531;28;20116;-49
2023/05/23 09:47:47;;;;;;;10.93;5.40;;;13.10;99.90;;;;;;5050562;28;20056;-50
2023/05/23 09:50:13;;;;;;;11.57;4.68;;;13.10;99.90;;;;;;5050180;28;20123;-53
2023/05/23 09:52:39;;;;;;;9.93;4.43;;;13.00;99.90;;;;;;5050403;28;20079;-50
2023/05/23 09:55:06;;;;;;;13.02;4.68;;;13.00;99.90;;;;;;5051401;28;20040;-48
2023/05/23 09:57:36;;;;;;;10.07;4.63;;;12.90;99.90;;;;;;5051594;28;20491;-52
2023/05/23 10:00:09;;;;;;;11.80;5.15;;;13.00;99.90;;;;;;5051324;28;20075;-52
2023/05/23 10:03:01;;;;;;;11.02;4.72;;;13.00;99.90;;;;;;5051637;28;20032;-53
2023/05/23 10:05:37;;;;;;;8.15;4.20;;;12.90;99.90;;;;;;5051635;28;20473;-49
2023/05/23 10:08:09;;;;;;;9.85;4.45;;;12.90;99.90;;;;;;5051749;28;20103;-49
2023/05/23 10:10:50;;;;;;;14.35;5.65;;;13.00;99.90;;;;;;5051581;28;20052;-50
2023/05/23 10:13:16;;;;;;;11.23;4.15;;;13.00;99.90;;;;;;5051086;28;20037;-48
2023/05/23 10:15:42;;;;;;;11.65;4.60;;;13.10;99.90;;;;;;5051434;28;20269;-49
2023/05/23 10:18:40;;;;;;;10.85;4.22;;;13.20;99.90;;;;;;5051467;28;20040;-47
2023/05/23 10:21:10;;;;;;;9.45;4.00;;;13.30;99.90;;;;;;5042516;28;20080;-49
2023/05/23 10:23:37;;;;;;;8.18;3.45;;;13.50;99.90;;;;;;5050997;28;20329;-50
2023/05/23 10:26:04;;;;;;;6.90;2.95;;;13.70;99.90;;;;;;5051078;28;20316;-52
2023/05/23 10:28:32;;;;;;;7.95;2.67;;;13.90;99.90;;;;;;5051151;28;20032;-49
2023/05/23 10:30:58;;;;;;;7.90;2.20;;;14.10;99.90;;;;;;5050703;28;20033;-48
2023/05/23 10:33:27;;;;;;;5.70;2.50;;;14.50;99.90;;;;;;5050668;28;20029;-48
2023/05/23 10:36:13;;;;;;;7.05;2.60;;;14.70;99.90;;;;;;5050907;28;20033;-52
2023/05/23 10:38:53;;;;;;;6.03;2.40;;;14.90;99.90;;;;;;5049991;28;20477;-49
2023/05/23 10:41:32;;;;;;;3.92;1.88;;;15.00;99.90;;;;;;5050511;28;20599;-48
2023/05/23 10:44:10;;;;;;;8.05;2.83;;;15.00;99.90;;;;;;5050693;28;20029;-53
2023/05/23 10:46:54;;;;;;;7.70;2.60;;;15.00;99.90;;;;;;5049365;28;20036;-51
2023/05/23 10:49:21;;;;;;;5.05;2.80;;;14.80;99.90;;;;;;5050873;28;20428;-50
2023/05/23 10:51:50;;;;;;;7.57;3.08;;;14.60;99.90;;;;;;5050443;28;20071;-51
2023/05/23 10:54:19;;;;;;;5.72;2.67;;;14.60;99.90;;;;;;5050370;28;20025;-48
2023/05/23 10:56:45;;;;;;;7.13;2.40;;;14.60;99.90;;;;;;5050687;28;20025;-53
2023/05/23 10:59:21;;;;;;;10.82;3.50;;;14.60;99.90;;;;;;5050444;28;20029;-49
2023/05/23 11:01:51;;;;;;;13.25;2.72;;;14.60;99.90;;;;;;5050322;28;20064;-50
2023/05/23 11:04:23;;;;;;;;;;;14.60;99.90;;;;;;5050952;28;20032;-48
2023/05/23 11:06:49;;;;;;;6.03;2.00;;;14.70;99.90;;;;;;5050688;28;19909;-50
2023/05/23 11:09:20;;;;;;;6.95;2.25;;;14.70;99.90;;;;;;5050564;28;20025;-49
2023/05/23 11:12:01;;;;;;;4.90;2.47;;;14.80;99.90;;;;;;5050016;28;20037;-49
2023/05/23 11:14:50;;;;;;;7.45;2.70;;;14.80;99.90;;;;;;5050298;28;20040;-49
2023/05/23 11:17:17;;;;;;;5.82;2.35;;;14.70;99.90;;;;;;5050472;28;20036;-52
2023/05/23 11:20:05;;;;;;;9.45;2.83;;;14.70;99.90;;;;;;5050261;28;20033;-49
2023/05/23 11:22:32;;;;;;;4.15;1.92;;;14.70;99.90;;;;;;5050428;28;20063;-49
2023/05/23 11:24:59;;;;;;;5.53;2.15;;;14.90;99.90;;;;;;5050246;28;20029;-52
2023/05/23 11:27:30;;;;;;;4.75;1.83;;;15.20;99.90;;;;;;5050290;28;20025;-49
2023/05/23 11:30:06;;;;;;;5.20;2.28;;;15.30;99.90;;;;;;5050496;28;20036;-48
2023/05/23 11:32:32;;;;;;;4.97;1.70;;;15.50;99.90;;;;;;5050075;28;20435;-51
2023/05/23 11:35:03;;;;;;;4.55;2.00;;;15.50;99.90;;;;;;5048876;28;20513;-50
2023/05/23 11:37:29;;;;;;;10.23;2.25;;;15.40;99.90;;;;;;5050295;28;20127;-49
2023/05/23 11:39:56;;;;;;;10.57;2.80;;;15.20;99.90;;;;;;5050168;28;20487;-49
2023/05/23 11:42:23;;;;;;;4.68;2.10;;;15.00;99.90;;;;;;5049773;28;20469;-49
2023/05/23 11:44:50;;;;;;;9.30;2.45;;;14.90;99.90;;;;;;5049939;28;20497;-48
2023/05/23 11:47:16;;;;;;;7.03;2.25;;;14.70;99.90;;;;;;5050192;28;20177;-49
2023/05/23 11:49:47;;;;;;;6.18;2.42;;;14.70;99.90;;;;;;5052456;28;20544;-48
2023/05/23 11:52:14;;;;;;;5.32;2.17;;;14.70;99.90;;;;;;5053966;28;20066;-47
2023/05/23 11:54:43;;;;;;;10.95;2.50;;;14.80;99.90;;;;;;5053911;28;20033;-49
2023/05/23 11:57:09;;;;;;;;;;;15.10;99.90;;;;;;5054517;28;20072;-49
2023/05/23 11:59:35;;;;;;;6.38;2.03;;;15.30;99.90;;;;;;5053644;28;19956;-47
2023/05/23 12:02:02;;;;;;;6.93;2.92;;;15.50;99.90;;;;;;5053521;28;20035;-47
2023/05/23 12:04:28;;;;;;;6.05;2.00;;;15.50;99.90;;;;;;5053513;28;20051;-49
2023/05/23 12:06:54;;;;;;;5.68;2.13;;;15.50;99.90;;;;;;5053698;28;20473;-47
2023/05/23 12:09:20;;;;;;;7.32;2.08;;;15.60;99.90;;;;;;5053713;28;20029;-49
2023/05/23 12:11:48;;;;;;;5.85;1.80;;;15.70;99.90;;;;;;5053236;28;20024;-48
2023/05/23 12:14:16;;;;;;;6.75;2.05;;;15.80;99.90;;;;;;5053285;28;20094;-49
2023/05/23 12:16:46;;;;;;;6.15;2.20;;;15.80;99.90;;;;;;5053735;28;20029;-50
2023/05/23 12:19:13;;;;;;;4.63;1.77;;;15.90;99.90;;;;;;5053664;28;20409;-47
2023/05/23 12:21:44;;;;;;;7.47;2.33;;;15.90;99.90;;;;;;5053213;28;20082;-48
2023/05/23 12:24:21;;;;;;;7.30;2.10;;;16.00;99.90;;;;;;5053292;28;20436;-48
2023/05/23 12:26:56;;;;;;;5.63;2.70;;;16.00;99.90;;;;;;5053185;28;20037;-48
2023/05/23 12:29:29;;;;;;;5.00;2.28;;;16.10;99.90;;;;;;5053289;28;20044;-49
2023/05/23 12:31:56;;;;;;;9.02;2.30;;;16.20;99.90;;;;;;5052915;28;20021;-49
2023/05/23 12:34:22;;;;;;;7.03;2.17;;;16.20;99.90;;;;;;5053133;28;20036;-49
2023/05/23 12:36:48;;;;;;;4.47;1.65;;;16.30;99.90;;;;;;5053201;28;20033;-48
2023/05/23 12:39:14;;;;;;;5.95;1.65;;;16.30;99.90;;;;;;5053074;28;20028;-48
2023/05/23 12:41:44;;;;;;;5.07;1.80;;;16.30;99.90;;;;;;5052854;28;20440;-48
2023/05/23 12:44:13;;;;;;;6.75;1.95;;;16.40;99.90;;;;;;5053210;28;20060;-49
2023/05/23 12:46:39;;;;;;;3.67;1.58;;;16.50;99.90;;;;;;5053258;28;20025;-48
2023/05/23 12:49:05;;;;;;;8.43;2.10;;;16.40;99.90;;;;;;5051861;28;20033;-50
2023/05/23 12:51:31;;;;;;;8.48;2.10;;;16.50;99.90;;;;;;5052651;28;20057;-49
2023/05/23 12:53:57;;;;;;;7.90;2.35;;;16.70;99.90;;;;;;5052714;28;20041;-50